首页
METAR-TAF:

METAR-TAF

机场 :

Palm Beach International Airport

西棕榈滩, 佛罗里达州, 美国

纬度: 26-41-05N, 经度: 080-05-58W, 海拔: 5米

当前天气观测

该预报发布于36分钟前的13:53 UTC
静风
温度 30°C
湿度 70%
气压 1016 hPa
能見度: 16.1公里
少量云层高于2600英尺
多云层高于10000英尺
多云层高于25000英尺

METAR: KPBI 021353Z 00000KT 10SM FEW026 BKN100 BKN250 30/24 A3000 RMK AO2 SLP157 T03000239 $

时间: 10:29 (14:29 UTC)

预报

该预报发布于3小时和3分钟前的11:26 UTC
预报有效从02日的 12点(UTC)到 03日的 12点(UTC)
风速4节,风向多变
能見度: 10公里
散云层高于3000英尺
散云层高于25000英尺
从 02日的 1700点(UTC)
风速12节,风向
能見度: 10公里
散云层高于3500英尺
散云层高于6000英尺
从 02日的 2000点(UTC)
风速12节,风向
能見度: 10公里
散云层高于2500英尺, 积雨云.
多云层高于5000英尺
附近有雷暴
从 03日的 0100点(UTC)
风速4节,风向多变
能見度: 10公里
散云层高于4000英尺
散云层高于25000英尺

TAF: KPBI 021126Z 0212/0312 VRB04KT P6SM SCT030 SCT250 FM021700 17012KT P6SM SCT035 SCT060 FM022000 19012KT P6SM VCTS SCT025CB BKN050 FM030100 VRB04KT P6SM SCT040 SCT250

超过4000个机场的气象观测和天气预报(METAR&TAF报告)。

可查询的气象台以黄色和红色小点在地图上表示。

将鼠标移到小点上方,可查看气象台名称。

然后点击查看天气观测和预报。

如需切换地图:点击带黑十字的绿色按钮放大地图;点击带横线的绿色按钮缩小地图;或者点击绿色箭头查看邻近地区的地图。


METAR-TAF: